createdAt,value
2022-08-17T01:43:09.555Z,995.92
2022-08-17T01:44:09.522Z,995.90
2022-08-17T01:45:09.494Z,995.89
2022-08-17T01:46:09.470Z,995.90
2022-08-17T01:47:09.446Z,995.94
2022-08-17T01:48:09.438Z,995.94
2022-08-17T01:49:09.403Z,995.97
2022-08-17T01:50:09.383Z,995.95
2022-08-17T01:51:09.360Z,995.94
2022-08-17T01:52:09.345Z,995.92
2022-08-17T01:53:09.325Z,995.94
2022-08-17T01:54:09.305Z,995.92
2022-08-17T01:55:09.288Z,995.92
2022-08-17T01:56:09.266Z,995.93
2022-08-17T01:57:09.248Z,995.93
2022-08-17T01:58:09.231Z,995.91
2022-08-17T01:59:09.212Z,995.90
2022-08-17T02:00:09.192Z,995.93
2022-08-17T02:01:09.229Z,995.88
2022-08-17T02:02:09.158Z,995.92
2022-08-17T02:03:09.130Z,995.91
2022-08-17T02:04:09.121Z,995.92
2022-08-17T02:05:09.105Z,995.94
2022-08-17T02:06:27.239Z,995.93
2022-08-17T02:07:09.065Z,995.92
2022-08-17T02:08:09.055Z,995.90
2022-08-17T02:09:09.040Z,995.90
2022-08-17T02:10:20.164Z,995.93
2022-08-17T02:11:11.601Z,995.95
2022-08-17T02:12:37.829Z,995.98
2022-08-17T02:13:08.965Z,995.98
2022-08-17T02:14:08.948Z,995.97
2022-08-17T02:15:08.938Z,995.95
2022-08-17T02:16:08.921Z,995.94
2022-08-17T02:17:08.898Z,995.90
2022-08-17T02:18:08.882Z,995.87
2022-08-17T02:19:08.880Z,995.93
2022-08-17T02:20:08.850Z,995.91
2022-08-17T02:21:08.845Z,995.91
2022-08-17T02:22:08.816Z,995.90
2022-08-17T02:23:08.800Z,995.90
2022-08-17T02:24:08.790Z,995.90
2022-08-17T02:25:08.773Z,995.91
2022-08-17T02:26:08.752Z,995.92
2022-08-17T02:27:08.745Z,995.94
2022-08-17T02:28:08.730Z,995.92
2022-08-17T02:29:08.723Z,995.91
2022-08-17T02:30:59.492Z,995.94
2022-08-17T02:31:08.671Z,995.91
2022-08-17T02:32:08.706Z,995.88
2022-08-17T02:33:09.354Z,995.87
2022-08-17T02:34:08.619Z,995.86
2022-08-17T02:35:08.598Z,995.82
2022-08-17T02:36:08.691Z,995.83
2022-08-17T02:37:08.576Z,995.79
2022-08-17T02:38:08.554Z,995.83
2022-08-17T02:39:08.600Z,995.83
2022-08-17T02:40:08.644Z,995.83
2022-08-17T02:41:08.516Z,995.81
2022-08-17T02:42:08.497Z,995.76
2022-08-17T02:43:08.479Z,995.82
2022-08-17T02:44:08.518Z,995.78
2022-08-17T02:45:08.448Z,995.78
2022-08-17T02:46:08.436Z,995.74
2022-08-17T02:47:08.417Z,995.80
2022-08-17T02:48:08.405Z,995.80
2022-08-17T02:49:08.439Z,995.84
2022-08-17T02:50:08.376Z,995.83
2022-08-17T02:51:08.363Z,995.82
2022-08-17T02:52:08.344Z,995.82
2022-08-17T02:53:08.381Z,995.83
2022-08-17T02:54:39.617Z,995.79
2022-08-17T02:55:08.312Z,995.80
2022-08-17T02:56:08.281Z,995.80
2022-08-17T02:57:08.296Z,995.73
2022-08-17T02:58:08.247Z,995.74
2022-08-17T02:59:08.233Z,995.75
2022-08-17T03:00:08.222Z,995.77
2022-08-17T03:01:08.237Z,995.77
2022-08-17T03:02:08.294Z,995.73
2022-08-17T03:03:08.245Z,995.72
2022-08-17T03:04:08.248Z,995.74
2022-08-17T03:05:08.180Z,995.73
2022-08-17T03:06:08.128Z,995.72
2022-08-17T03:07:08.107Z,995.71
2022-08-17T03:08:13.282Z,995.67
2022-08-17T03:09:08.084Z,995.70
2022-08-17T03:10:08.103Z,995.68
2022-08-17T03:11:08.046Z,995.73
2022-08-17T03:12:08.032Z,995.69
2022-08-17T03:13:08.019Z,995.70
2022-08-17T03:14:08.010Z,995.66
2022-08-17T03:15:07.989Z,995.69
2022-08-17T03:16:07.970Z,995.71
2022-08-17T03:17:07.959Z,995.66
2022-08-17T03:18:07.944Z,995.66
2022-08-17T03:19:07.925Z,995.67
2022-08-17T03:20:07.907Z,995.67
2022-08-17T03:21:07.894Z,995.65
2022-08-17T03:22:35.405Z,995.64
2022-08-17T03:23:07.884Z,995.67
2022-08-17T03:24:08.928Z,995.63
2022-08-17T03:25:10.638Z,995.64
2022-08-17T03:26:12.167Z,995.64
2022-08-17T03:27:07.804Z,995.63
2022-08-17T03:28:07.802Z,995.61
2022-08-17T03:29:07.777Z,995.62
2022-08-17T03:30:07.764Z,995.59
2022-08-17T03:31:07.745Z,995.59
2022-08-17T03:32:07.734Z,995.60
2022-08-17T03:33:07.715Z,995.63
2022-08-17T03:34:07.701Z,995.65
2022-08-17T03:35:07.684Z,995.68
2022-08-17T03:36:07.670Z,995.64
2022-08-17T03:37:07.651Z,995.68
2022-08-17T03:38:07.645Z,995.65
2022-08-17T03:39:07.623Z,995.68
2022-08-17T03:40:07.636Z,995.64
2022-08-17T03:41:07.596Z,995.66
2022-08-17T03:42:07.580Z,995.68
2022-08-17T03:43:07.563Z,995.66
2022-08-17T03:44:07.555Z,995.64
2022-08-17T03:45:07.535Z,995.67
2022-08-17T03:46:10.930Z,995.71
2022-08-17T03:47:07.502Z,995.69
2022-08-17T03:48:07.489Z,995.72
2022-08-17T03:49:07.500Z,995.71
2022-08-17T03:50:07.468Z,995.74
2022-08-17T03:51:11.430Z,995.74
2022-08-17T03:52:07.437Z,995.75
2022-08-17T03:53:07.412Z,995.75
2022-08-17T03:54:07.708Z,995.76
2022-08-17T03:55:07.381Z,995.75
2022-08-17T03:56:07.368Z,995.76
2022-08-17T03:57:07.355Z,995.76
2022-08-17T03:58:07.335Z,995.76
2022-08-17T03:59:07.325Z,995.71
2022-08-17T04:00:07.310Z,995.74
2022-08-17T04:01:07.378Z,995.68
2022-08-17T04:02:07.277Z,995.71
2022-08-17T04:03:07.260Z,995.72
2022-08-17T04:04:07.247Z,995.71
2022-08-17T04:05:07.229Z,995.71
2022-08-17T04:06:07.218Z,995.70
2022-08-17T04:07:07.200Z,995.73
2022-08-17T04:08:07.188Z,995.67
2022-08-17T04:09:07.170Z,995.67
2022-08-17T04:10:07.161Z,995.71
2022-08-17T04:11:07.141Z,995.71
2022-08-17T04:12:07.126Z,995.72
2022-08-17T04:13:07.103Z,995.71
2022-08-17T04:14:07.098Z,995.73
2022-08-17T04:15:07.081Z,995.74
2022-08-17T04:16:07.068Z,995.73
2022-08-17T04:17:07.049Z,995.76
2022-08-17T04:18:07.672Z,995.77
2022-08-17T04:19:07.020Z,995.79
2022-08-17T04:20:07.007Z,995.79
2022-08-17T04:21:06.990Z,995.80
2022-08-17T04:22:06.976Z,995.81
2022-08-17T04:23:06.958Z,995.85
2022-08-17T04:24:06.946Z,995.85
2022-08-17T04:25:06.932Z,995.81
2022-08-17T04:26:06.914Z,995.80
2022-08-17T04:27:06.899Z,995.83
2022-08-17T04:28:07.616Z,995.80
2022-08-17T04:29:06.867Z,995.84
2022-08-17T04:30:06.876Z,995.85
2022-08-17T04:31:06.840Z,995.86
2022-08-17T04:32:06.827Z,995.87
2022-08-17T04:33:07.459Z,995.89
2022-08-17T04:34:06.786Z,995.89
2022-08-17T04:35:06.777Z,995.90
2022-08-17T04:36:06.763Z,995.87
2022-08-17T04:37:06.748Z,995.93
2022-08-17T04:38:06.736Z,995.90
2022-08-17T04:39:06.717Z,995.95
2022-08-17T04:40:06.753Z,995.96
2022-08-17T04:41:06.686Z,995.97
2022-08-17T04:42:06.672Z,995.98
2022-08-17T04:43:06.658Z,995.97
2022-08-17T04:44:06.648Z,995.97
2022-08-17T04:45:06.627Z,995.96
2022-08-17T04:46:06.612Z,995.99
2022-08-17T04:47:06.616Z,995.98
2022-08-17T04:48:06.583Z,996.02
2022-08-17T04:49:06.572Z,996.01
2022-08-17T04:50:06.553Z,995.96
2022-08-17T04:51:06.537Z,996.01
2022-08-17T04:52:06.537Z,995.99
2022-08-17T04:53:06.504Z,995.97
2022-08-17T04:54:06.502Z,996.03
2022-08-17T04:55:06.480Z,996.07
2022-08-17T04:56:06.511Z,996.04
2022-08-17T04:57:06.445Z,996.03
2022-08-17T04:58:06.441Z,996.06
2022-08-17T04:59:06.417Z,996.08
2022-08-17T05:00:06.402Z,996.08
2022-08-17T05:01:06.438Z,996.06
2022-08-17T05:02:06.372Z,996.10
2022-08-17T05:03:06.354Z,996.11
2022-08-17T05:04:32.196Z,996.13
2022-08-17T05:05:06.325Z,996.10
2022-08-17T05:06:06.311Z,996.09
2022-08-17T05:07:06.295Z,996.14
2022-08-17T05:08:06.284Z,996.13
2022-08-17T05:09:06.266Z,996.15
2022-08-17T05:10:06.257Z,996.10
2022-08-17T05:11:06.236Z,996.12
2022-08-17T05:12:06.224Z,996.14
2022-08-17T05:13:06.207Z,996.08
2022-08-17T05:14:06.193Z,996.16
2022-08-17T05:15:06.180Z,996.15
2022-08-17T05:16:06.162Z,996.17
2022-08-17T05:17:09.371Z,996.16
2022-08-17T05:18:06.133Z,996.20
2022-08-17T05:19:06.119Z,996.19
2022-08-17T05:20:06.107Z,996.19
2022-08-17T05:21:06.080Z,996.16
2022-08-17T05:22:06.076Z,996.11
2022-08-17T05:23:06.059Z,996.11
2022-08-17T05:24:07.147Z,996.05
2022-08-17T05:25:06.030Z,996.04
2022-08-17T05:26:07.035Z,996.00
2022-08-17T05:27:06.514Z,995.98
2022-08-17T05:28:05.983Z,995.99
2022-08-17T05:29:05.965Z,995.95
2022-08-17T05:30:05.955Z,995.96
2022-08-17T05:31:05.949Z,995.96
2022-08-17T05:32:38.121Z,995.97
2022-08-17T05:33:05.913Z,995.94
2022-08-17T05:34:05.904Z,995.95
2022-08-17T05:35:05.888Z,995.98
2022-08-17T05:36:05.869Z,995.98
2022-08-17T05:37:05.861Z,995.99
2022-08-17T05:38:05.849Z,995.98
2022-08-17T05:39:05.837Z,995.97
2022-08-17T05:40:05.884Z,995.98
2022-08-17T05:41:05.798Z,995.99
2022-08-17T05:42:05.785Z,995.99
2022-08-17T05:43:05.771Z,995.97
2022-08-17T05:44:05.763Z,995.98
2022-08-17T05:45:05.744Z,996.00
2022-08-17T05:46:05.729Z,995.99
2022-08-17T05:47:05.715Z,996.01
2022-08-17T05:48:05.698Z,995.98
2022-08-17T05:49:05.689Z,995.99
2022-08-17T05:50:09.829Z,995.99
2022-08-17T05:51:05.656Z,996.01
2022-08-17T05:52:05.650Z,996.01
2022-08-17T05:53:05.629Z,996.04
2022-08-17T05:54:05.619Z,996.02
2022-08-17T05:55:05.600Z,996.00
2022-08-17T05:56:05.590Z,995.99
2022-08-17T05:57:05.576Z,995.97
2022-08-17T05:58:05.586Z,995.92
2022-08-17T05:59:05.548Z,995.92
2022-08-17T06:00:05.533Z,995.91
2022-08-17T06:01:05.575Z,995.96
2022-08-17T06:02:05.516Z,995.93
2022-08-17T06:03:05.492Z,995.94
2022-08-17T06:04:05.478Z,995.94
2022-08-17T06:05:05.461Z,995.98
2022-08-17T06:06:05.450Z,996.02
2022-08-17T06:07:05.434Z,996.03
2022-08-17T06:08:05.425Z,996.07
2022-08-17T06:09:05.407Z,996.08
2022-08-17T06:10:05.394Z,996.06
2022-08-17T06:11:05.431Z,995.99
2022-08-17T06:12:05.373Z,995.99
2022-08-17T06:13:05.357Z,995.94
2022-08-17T06:14:05.343Z,995.93
2022-08-17T06:15:05.326Z,995.91
2022-08-17T06:16:05.321Z,995.91
2022-08-17T06:17:05.303Z,995.90
2022-08-17T06:18:05.292Z,995.89
2022-08-17T06:19:05.278Z,995.84
2022-08-17T06:20:05.272Z,995.86
2022-08-17T06:21:05.250Z,995.88
2022-08-17T06:22:05.240Z,995.88
2022-08-17T06:23:05.226Z,995.87
2022-08-17T06:24:05.215Z,995.88
2022-08-17T06:25:05.208Z,995.90
2022-08-17T06:26:05.193Z,995.88
2022-08-17T06:27:05.174Z,995.89
2022-08-17T06:28:05.165Z,995.90
2022-08-17T06:29:05.149Z,995.88
2022-08-17T06:30:05.137Z,995.90
2022-08-17T06:31:05.125Z,995.93
2022-08-17T06:32:05.114Z,995.92
2022-08-17T06:33:05.100Z,995.93
2022-08-17T06:34:05.091Z,995.91
2022-08-17T06:35:05.080Z,995.96
2022-08-17T06:36:05.068Z,996.02
2022-08-17T06:37:05.052Z,996.06
2022-08-17T06:38:05.049Z,996.25
2022-08-17T06:39:05.025Z,996.25
2022-08-17T06:40:05.086Z,996.28
2022-08-17T06:41:05.001Z,996.28
2022-08-17T06:42:04.991Z,996.23
2022-08-17T06:43:06.725Z,996.15
2022-08-17T06:44:04.964Z,996.21
2022-08-17T06:45:04.954Z,996.27
2022-08-17T06:46:04.938Z,996.31
2022-08-17T06:47:04.935Z,996.38
2022-08-17T06:48:04.907Z,996.34
2022-08-17T06:49:04.900Z,996.25
2022-08-17T06:50:04.887Z,996.20
2022-08-17T06:51:04.872Z,996.28
2022-08-17T06:52:04.868Z,996.37
2022-08-17T06:53:04.847Z,996.40
2022-08-17T06:54:04.837Z,996.43
2022-08-17T06:55:04.852Z,996.48
2022-08-17T06:56:04.809Z,996.44
2022-08-17T06:57:04.794Z,996.50
2022-08-17T06:58:09.996Z,996.47
2022-08-17T06:59:04.773Z,996.38
2022-08-17T07:00:04.758Z,996.43
2022-08-17T07:01:04.811Z,996.45
2022-08-17T07:02:04.772Z,996.50
2022-08-17T07:03:04.925Z,996.56
2022-08-17T07:04:11.642Z,996.58
2022-08-17T07:05:04.693Z,996.61
2022-08-17T07:06:04.677Z,996.61
2022-08-17T07:07:04.669Z,996.64
2022-08-17T07:08:04.686Z,996.69
2022-08-17T07:09:04.641Z,996.65
2022-08-17T07:10:04.627Z,996.69
2022-08-17T07:11:04.619Z,996.66
2022-08-17T07:12:04.597Z,996.65
2022-08-17T07:13:04.588Z,996.61
2022-08-17T07:14:04.574Z,996.66
2022-08-17T07:15:04.563Z,996.65
2022-08-17T07:16:04.546Z,996.63
2022-08-17T07:17:04.532Z,996.60
2022-08-17T07:18:04.520Z,996.62
2022-08-17T07:19:04.513Z,996.62
2022-08-17T07:20:04.494Z,996.61
2022-08-17T07:21:04.485Z,996.59
2022-08-17T07:22:04.464Z,996.58
2022-08-17T07:23:04.455Z,996.57
2022-08-17T07:24:04.443Z,996.61
2022-08-17T07:25:04.430Z,996.60
2022-08-17T07:26:04.413Z,996.60
2022-08-17T07:27:04.399Z,996.61
2022-08-17T07:28:06.900Z,996.63
2022-08-17T07:29:04.378Z,996.65
2022-08-17T07:30:09.538Z,996.66
2022-08-17T07:31:04.355Z,996.70
2022-08-17T07:32:04.344Z,996.66
2022-08-17T07:33:04.325Z,996.68
2022-08-17T07:34:04.312Z,996.67
2022-08-17T07:35:04.301Z,996.73
2022-08-17T07:36:04.284Z,996.79
2022-08-17T07:37:04.274Z,996.79
2022-08-17T07:38:04.263Z,996.80
2022-08-17T07:39:04.265Z,996.81
2022-08-17T07:40:16.367Z,996.86
2022-08-17T07:41:04.215Z,996.86
2022-08-17T07:42:04.208Z,996.87
2022-08-17T07:43:04.973Z,996.91
2022-08-17T07:44:04.190Z,996.90
2022-08-17T07:45:04.175Z,996.93
2022-08-17T07:46:04.158Z,996.91
2022-08-17T07:47:04.158Z,996.89
2022-08-17T07:48:04.133Z,996.92
2022-08-17T07:49:04.121Z,996.91
2022-08-17T07:50:04.109Z,996.88
2022-08-17T07:51:04.097Z,996.86
2022-08-17T07:52:47.824Z,996.86
2022-08-17T07:53:04.068Z,996.88
2022-08-17T07:54:14.545Z,996.87
2022-08-17T07:55:04.059Z,996.87
2022-08-17T07:56:07.717Z,996.87
2022-08-17T07:57:04.020Z,996.93
2022-08-17T07:58:04.007Z,996.89
2022-08-17T07:59:03.998Z,996.93
2022-08-17T08:00:03.980Z,996.95
2022-08-17T08:01:03.973Z,996.96
2022-08-17T08:02:03.981Z,996.97
2022-08-17T08:03:03.951Z,996.96
2022-08-17T08:04:03.934Z,997.00
2022-08-17T08:05:06.806Z,997.01
2022-08-17T08:06:03.914Z,997.01
2022-08-17T08:07:03.903Z,997.01
2022-08-17T08:08:03.888Z,996.99
2022-08-17T08:09:03.878Z,996.99
2022-08-17T08:10:03.862Z,996.99
2022-08-17T08:11:03.856Z,996.94
2022-08-17T08:12:03.833Z,996.92
2022-08-17T08:13:03.829Z,996.88
2022-08-17T08:14:03.818Z,996.87
2022-08-17T08:15:03.805Z,996.88
2022-08-17T08:16:03.789Z,996.86
2022-08-17T08:17:03.786Z,996.87
2022-08-17T08:18:03.769Z,996.85
2022-08-17T08:19:03.757Z,996.89
2022-08-17T08:20:51.283Z,996.86
2022-08-17T08:21:03.741Z,996.90
2022-08-17T08:22:03.722Z,996.90
2022-08-17T08:23:03.715Z,996.87
2022-08-17T08:24:03.705Z,996.87
2022-08-17T08:25:03.696Z,996.85
2022-08-17T08:26:03.681Z,996.82
2022-08-17T08:27:03.669Z,996.79
2022-08-17T08:28:03.668Z,996.75
2022-08-17T08:29:03.653Z,996.80
2022-08-17T08:30:03.633Z,996.80
2022-08-17T08:31:03.635Z,996.75
2022-08-17T08:32:03.612Z,996.81
2022-08-17T08:33:03.601Z,996.79
2022-08-17T08:34:03.580Z,996.78
2022-08-17T08:35:03.864Z,996.79
2022-08-17T08:36:03.565Z,996.81
2022-08-17T08:37:15.348Z,996.73
2022-08-17T08:38:03.549Z,996.79
2022-08-17T08:39:03.529Z,996.75
2022-08-17T08:40:03.560Z,996.78
2022-08-17T08:41:03.507Z,996.82
2022-08-17T08:42:03.505Z,996.89
2022-08-17T08:43:03.488Z,996.92
2022-08-17T08:44:03.475Z,996.96
2022-08-17T08:45:04.785Z,996.93
2022-08-17T08:46:03.446Z,996.95
2022-08-17T08:47:03.442Z,996.97
2022-08-17T08:48:05.436Z,997.01
2022-08-17T08:49:06.976Z,997.01
2022-08-17T08:50:05.053Z,997.08
2022-08-17T08:51:03.478Z,997.08
2022-08-17T08:52:03.382Z,997.11
2022-08-17T08:53:03.371Z,997.09
2022-08-17T08:54:03.365Z,997.14
2022-08-17T08:55:03.349Z,997.08
2022-08-17T08:56:03.351Z,997.09
2022-08-17T08:57:34.191Z,997.08
2022-08-17T08:58:03.311Z,997.08
2022-08-17T08:59:03.301Z,997.08
2022-08-17T09:00:03.293Z,997.10
2022-08-17T09:01:03.345Z,997.04
2022-08-17T09:02:03.269Z,997.06
2022-08-17T09:03:03.299Z,997.06
2022-08-17T09:04:19.976Z,997.05
2022-08-17T09:05:14.403Z,997.15
2022-08-17T09:06:03.228Z,997.14
2022-08-17T09:07:03.253Z,997.15
2022-08-17T09:08:03.201Z,997.08
2022-08-17T09:09:03.192Z,997.09
2022-08-17T09:10:03.201Z,997.08
2022-08-17T09:11:03.172Z,997.07
2022-08-17T09:12:04.102Z,997.06
2022-08-17T09:13:09.566Z,997.05
2022-08-17T09:14:03.194Z,997.04
2022-08-17T09:15:03.130Z,997.00
2022-08-17T09:16:03.137Z,997.01
2022-08-17T09:17:03.105Z,997.00
2022-08-17T09:19:01.043Z,997.01
2022-08-17T09:19:04.858Z,997.01
2022-08-17T09:20:03.069Z,996.96
2022-08-17T09:21:03.066Z,996.96
2022-08-17T09:22:03.066Z,996.94
2022-08-17T09:23:03.037Z,996.94
2022-08-17T09:24:03.043Z,996.92
2022-08-17T09:25:03.016Z,996.94
2022-08-17T09:26:03.013Z,996.96
2022-08-17T09:27:03.027Z,996.92
2022-08-17T09:28:02.980Z,996.92
2022-08-17T09:29:02.972Z,996.93
2022-08-17T09:30:02.967Z,996.94
2022-08-17T09:31:02.946Z,996.95
2022-08-17T09:32:02.979Z,996.99
2022-08-17T09:33:02.928Z,996.97
2022-08-17T09:34:02.914Z,996.91
2022-08-17T09:35:02.910Z,996.96
2022-08-17T09:36:02.886Z,996.94
2022-08-17T09:37:02.877Z,996.89
2022-08-17T09:38:02.864Z,996.96
2022-08-17T09:39:02.859Z,996.97
2022-08-17T09:40:02.903Z,996.97
2022-08-17T09:41:02.887Z,996.98
2022-08-17T09:42:02.832Z,996.98
2022-08-17T09:43:02.826Z,997.00
2022-08-17T09:44:02.797Z,996.98
2022-08-17T09:45:02.792Z,997.01
2022-08-17T09:46:02.780Z,997.00
2022-08-17T09:47:02.762Z,996.97
2022-08-17T09:48:02.758Z,996.95
2022-08-17T09:49:02.749Z,997.03
2022-08-17T09:50:02.730Z,996.95
2022-08-17T09:51:04.456Z,997.00
2022-08-17T09:52:02.713Z,997.01
